Wetterdaten: Woche 03.04.17 - 09.04.17 (KW14)
Datum Zeit Temp. A. Feuchte A. Luftdruck Regen Wind Richtung Taupunkt Windchill Windben
03.04.2017 00:00 9,0 C 73 % 1017,2 hPa 0,0 l/m 0,0 km/h N 4,4 C 9,0 C 0,0 km/h
03.04.2017 01:00 8,1 C 76 % 1017,3 hPa 0,0 l/m 0,0 km/h N 4,1 C 8,1 C 0,0 km/h
03.04.2017 02:00 7,6 C 78 % 1017,3 hPa 0,0 l/m 0,0 km/h N 3,9 C 7,6 C 0,0 km/h
03.04.2017 03:00 7,0 C 79 % 1017,5 hPa 0,0 l/m 0,0 km/h N 3,5 C 7,0 C 0,0 km/h
03.04.2017 04:00 6,7 C 80 % 1018,0 hPa 0,0 l/m 0,0 km/h N 3,6 C 6,7 C 1,2 km/h
03.04.2017 05:00 7,3 C 79 % 1018,3 hPa 0,0 l/m 0,0 km/h N 4,0 C 7,3 C 0,8 km/h
03.04.2017 06:00 7,0 C 80 % 1018,8 hPa 0,0 l/m 0,0 km/h N 3,7 C 7,0 C 0,8 km/h
03.04.2017 07:00 10,1 C 78 % 1019,5 hPa 0,0 l/m 1,7 km/h N 6,4 C 10,1 C 11,3 km/h
03.04.2017 08:00 12,9 C 70 % 1020,0 hPa 0,0 l/m 7,5 km/h N 7,6 C 12,1 C 18,9 km/h
03.04.2017 09:00 14,2 C 70 % 1020,5 hPa 0,0 l/m 8,1 km/h N 8,7 C 13,2 C 19,3 km/h
03.04.2017 10:00 15,4 C 66 % 1020,5 hPa 0,0 l/m 10,1 km/h N 9,2 C 13,6 C 23,7 km/h
03.04.2017 11:00 16,8 C 63 % 1020,4 hPa 0,0 l/m 11,1 km/h N 9,6 C 14,6 C 24,5 km/h
03.04.2017 12:00 18,1 C 60 % 1020,0 hPa 0,0 l/m 10,3 km/h N 10,2 C 16,4 C 24,9 km/h
03.04.2017 13:00 19,1 C 57 % 1019,7 hPa 0,0 l/m 9,2 km/h N 10,4 C 18,0 C 24,1 km/h
03.04.2017 14:00 19,8 C 55 % 1019,2 hPa 0,0 l/m 8,1 km/h N 10,3 C 19,1 C 22,9 km/h
03.04.2017 15:00 20,3 C 53 % 1018,5 hPa 0,0 l/m 7,9 km/h N 10,2 C 19,7 C 20,9 km/h
03.04.2017 16:00 20,3 C 49 % 1018,1 hPa 0,0 l/m 6,7 km/h N 9,3 C 20,1 C 18,9 km/h
03.04.2017 17:00 20,4 C 49 % 1017,7 hPa 0,0 l/m 5,6 km/h N 9,4 C 20,4 C 16,5 km/h
03.04.2017 18:00 20,1 C 49 % 1017,7 hPa 0,0 l/m 7,3 km/h N 9,1 C 19,6 C 18,5 km/h
03.04.2017 19:00 18,3 C 53 % 1018,1 hPa 0,0 l/m 5,9 km/h N 8,6 C 18,1 C 18,9 km/h
03.04.2017 20:00 16,9 C 58 % 1019,0 hPa 0,0 l/m 5,7 km/h N 8,6 C 16,8 C 18,5 km/h
03.04.2017 21:00 15,2 C 64 % 1019,8 hPa 0,0 l/m 4,8 km/h N 8,3 C 15,0 C 16,9 km/h
03.04.2017 22:00 13,7 C 67 % 1020,0 hPa 0,0 l/m 2,4 km/h N 7,6 C 13,7 C 10,5 km/h
03.04.2017 23:00 12,8 C 68 % 1020,0 hPa 0,0 l/m 2,2 km/h N 7,0 C 12,8 C 11,3 km/h
04.04.2017 00:00 11,7 C 70 % 1019,7 hPa 0,0 l/m 0,0 km/h N 6,4 C 11,7 C 1,6 km/h
04.04.2017 01:00 10,6 C 75 % 1019,5 hPa 0,3 l/m 0,8 km/h N 6,3 C 10,6 C 5,6 km/h
04.04.2017 02:00 10,6 C 76 % 1019,3 hPa 0,0 l/m 3,9 km/h N 6,6 C 10,6 C 11,7 km/h
04.04.2017 03:00 10,5 C 76 % 1019,0 hPa 0,0 l/m 4,5 km/h N 6,5 C 10,5 C 14,5 km/h
04.04.2017 04:00 10,0 C 78 % 1019,1 hPa 0,0 l/m 2,6 km/h N 6,3 C 10,0 C 11,7 km/h
04.04.2017 05:00 9,8 C 78 % 1019,1 hPa 0,0 l/m 4,2 km/h N 6,1 C 9,8 C 12,1 km/h
04.04.2017 06:00 9,5 C 79 % 1019,4 hPa 0,0 l/m 2,3 km/h N 6,0 C 9,5 C 10,1 km/h
04.04.2017 07:00 9,8 C 80 % 1019,9 hPa 0,0 l/m 4,2 km/h N 6,5 C 9,8 C 12,5 km/h
04.04.2017 08:00 11,0 C 79 % 1020,0 hPa 0,0 l/m 6,3 km/h N 7,4 C 10,6 C 19,3 km/h
04.04.2017 09:00 12,1 C 75 % 1020,1 hPa 0,0 l/m 8,3 km/h N 7,7 C 10,9 C 20,5 km/h
04.04.2017 10:00 12,8 C 72 % 1020,2 hPa 0,0 l/m 9,4 km/h N 7,9 C 11,0 C 24,5 km/h
04.04.2017 11:00 13,8 C 70 % 1020,2 hPa 0,0 l/m 11,6 km/h N 8,4 C 11,1 C 25,0 km/h
04.04.2017 12:00 15,1 C 65 % 1019,9 hPa 0,0 l/m 9,3 km/h N 8,6 C 13,5 C 24,1 km/h
04.04.2017 13:00 15,9 C 62 % 1019,4 hPa 0,0 l/m 9,5 km/h N 8,5 C 14,4 C 27,0 km/h
04.04.2017 14:00 16,4 C 59 % 1018,9 hPa 0,0 l/m 11,1 km/h N 8,3 C 14,3 C 24,9 km/h
04.04.2017 15:00 16,5 C 58 % 1018,8 hPa 0,0 l/m 9,9 km/h N 8,3 C 14,8 C 22,9 km/h
04.04.2017 16:00 16,1 C 56 % 1018,4 hPa 0,0 l/m 10,1 km/h N 7,4 C 14,3 C 23,3 km/h
04.04.2017 17:00 16,0 C 55 % 1018,2 hPa 0,0 l/m 11,1 km/h N 6,9 C 13,7 C 25,8 km/h
04.04.2017 18:00 15,0 C 56 % 1018,4 hPa 0,0 l/m 9,4 km/h N 6,3 C 13,4 C 22,9 km/h
04.04.2017 19:00 14,3 C 57 % 1018,5 hPa 0,0 l/m 11,0 km/h N 5,7 C 11,8 C 26,5 km/h
04.04.2017 20:00 13,8 C 58 % 1019,0 hPa 0,0 l/m 9,0 km/h N 5,7 C 12,3 C 27,0 km/h
04.04.2017 21:00 13,3 C 63 % 1019,1 hPa 0,0 l/m 9,6 km/h N 6,2 C 11,4 C 25,0 km/h
04.04.2017 22:00 12,8 C 66 % 1019,3 hPa 0,0 l/m 10,9 km/h N 6,5 C 10,2 C 27,0 km/h
04.04.2017 23:00 12,2 C 68 % 1019,2 hPa 0,0 l/m 13,6 km/h N 6,5 C 8,4 C 29,8 km/h
05.04.2017 00:00 11,6 C 71 % 1019,1 hPa 0,0 l/m 15,9 km/h N 6,5 C 6,7 C 35,0 km/h
05.04.2017 01:00 11,3 C 73 % 1019,0 hPa 0,0 l/m 13,0 km/h N 6,5 C 7,5 C 28,6 km/h
05.04.2017 02:00 11,1 C 72 % 1018,6 hPa 0,0 l/m 11,8 km/h N 6,3 C 7,9 C 27,4 km/h
05.04.2017 03:00 10,8 C 75 % 1018,4 hPa 0,0 l/m 9,6 km/h N 6,5 C 8,8 C 24,5 km/h
05.04.2017 04:00 10,7 C 74 % 1018,4 hPa 0,0 l/m 7,3 km/h N 6,2 C 9,8 C 20,5 km/h
05.04.2017 05:00 10,7 C 73 % 1018,7 hPa 0,0 l/m 6,2 km/h N 6,0 C 10,4 C 17,7 km/h
05.04.2017 06:00 10,4 C 74 % 1018,8 hPa 0,0 l/m 5,9 km/h N 6,1 C 10,3 C 17,3 km/h
05.04.2017 07:00 9,5 C 80 % 1019,0 hPa 2,6 l/m 7,7 km/h N 6,1 C 8,6 C 21,3 km/h
05.04.2017 08:00 9,1 C 81 % 1019,1 hPa 0,0 l/m 7,3 km/h N 6,0 C 8,0 C 21,7 km/h
05.04.2017 09:00 9,0 C 81 % 1019,4 hPa 1,0 l/m 6,0 km/h N 6,0 C 8,6 C 18,9 km/h
05.04.2017 10:00 9,6 C 80 % 1019,4 hPa 0,0 l/m 9,5 km/h N 6,3 C 7,4 C 24,5 km/h
05.04.2017 11:00 10,9 C 76 % 1019,1 hPa 0,0 l/m 9,4 km/h N 6,7 C 8,9 C 25,3 km/h
05.04.2017 12:00 11,9 C 70 % 1018,8 hPa 0,0 l/m 10,6 km/h N 6,5 C 9,4 C 28,6 km/h
05.04.2017 13:00 12,5 C 67 % 1018,4 hPa 0,0 l/m 7,9 km/h N 6,6 C 11,5 C 24,5 km/h
05.04.2017 14:00 12,7 C 66 % 1017,9 hPa 0,0 l/m 8,3 km/h N 6,6 C 11,6 C 24,9 km/h
05.04.2017 15:00 13,0 C 66 % 1016,8 hPa 0,0 l/m 11,1 km/h N 6,8 C 10,4 C 29,0 km/h
05.04.2017 16:00 13,3 C 64 % 1015,8 hPa 0,0 l/m 15,6 km/h N 6,5 C 8,9 C 36,6 km/h
05.04.2017 17:00 13,6 C 62 % 1015,6 hPa 0,0 l/m 14,9 km/h N 6,4 C 9,6 C 32,2 km/h
05.04.2017 18:00 13,3 C 62 % 1015,7 hPa 0,0 l/m 13,4 km/h N 6,2 C 9,8 C 31,4 km/h
05.04.2017 19:00 12,9 C 63 % 1015,5 hPa 0,0 l/m 12,0 km/h N 6,1 C 9,9 C 27,8 km/h
05.04.2017 20:00 13,0 C 63 % 1015,6 hPa 0,0 l/m 13,4 km/h N 6,1 C 9,4 C 30,6 km/h
05.04.2017 21:00 13,2 C 63 % 1015,8 hPa 0,0 l/m 11,8 km/h N 6,3 C 10,3 C 27,4 km/h
05.04.2017 22:00 13,1 C 64 % 1015,5 hPa 0,0 l/m 9,4 km/h N 6,5 C 11,3 C 22,5 km/h
05.04.2017 23:00 12,9 C 66 % 1015,5 hPa 0,0 l/m 10,1 km/h N 6,7 C 10,7 C 24,5 km/h
06.04.2017 00:00 12,4 C 69 % 1015,5 hPa 0,0 l/m 8,2 km/h N 6,9 C 11,3 C 20,5 km/h
06.04.2017 01:00 11,0 C 79 % 1015,4 hPa 0,5 l/m 5,7 km/h N 7,4 C 11,0 C 16,1 km/h
06.04.2017 02:00 10,0 C 82 % 1015,3 hPa 1,6 l/m 3,7 km/h N 7,0 C 10,0 C 14,1 km/h
06.04.2017 03:00 8,8 C 82 % 1015,5 hPa 2,3 l/m 9,9 km/h N 5,9 C 6,4 C 27,8 km/h
06.04.2017 04:00 6,6 C 81 % 1016,2 hPa 0,5 l/m 9,8 km/h N 3,6 C 4,1 C 25,8 km/h
06.04.2017 05:00 6,6 C 82 % 1016,4 hPa 0,0 l/m 5,9 km/h N 3,7 C 6,5 C 16,9 km/h
06.04.2017 06:00 6,8 C 82 % 1016,6 hPa 0,0 l/m 4,7 km/h N 3,9 C 6,8 C 14,1 km/h
06.04.2017 07:00 7,0 C 80 % 1016,9 hPa 0,0 l/m 5,9 km/h N 3,9 C 6,6 C 15,7 km/h
06.04.2017 08:00 7,3 C 72 % 1017,5 hPa 0,0 l/m 10,3 km/h N 2,5 C 4,6 C 24,5 km/h
06.04.2017 09:00 8,0 C 65 % 1017,4 hPa 0,0 l/m 15,4 km/h N 1,7 C 2,6 C 35,4 km/h
06.04.2017 10:00 8,5 C 60 % 1017,7 hPa 0,3 l/m 17,1 km/h N 1,1 C 2,4 C 41,4 km/h
06.04.2017 11:00 8,1 C 63 % 1018,1 hPa 0,0 l/m 15,6 km/h N 1,4 C 2,6 C 35,8 km/h
06.04.2017 12:00 9,3 C 58 % 1018,2 hPa 0,0 l/m 17,7 km/h N 1,5 C 3,3 C 40,2 km/h
06.04.2017 13:00 9,8 C 55 % 1018,4 hPa 0,0 l/m 16,8 km/h N 1,0 C 4,1 C 40,2 km/h
06.04.2017 14:00 10,1 C 51 % 1018,4 hPa 0,0 l/m 14,2 km/h N 0,3 C 5,6 C 39,4 km/h
06.04.2017 15:00 10,3 C 48 % 1018,3 hPa 0,0 l/m 13,0 km/h N -0,2 C 6,4 C 35,4 km/h
06.04.2017 16:00 10,7 C 47 % 1018,4 hPa 0,0 l/m 14,7 km/h N -0,2 C 6,1 C 39,8 km/h
06.04.2017 17:00 11,0 C 44 % 1018,6 hPa 0,0 l/m 15,6 km/h N -0,7 C 6,1 C 35,4 km/h
06.04.2017 18:00 10,2 C 46 % 1019,0 hPa 0,0 l/m 10,5 km/h N -0,9 C 7,6 C 28,6 km/h
06.04.2017 19:00 10,0 C 47 % 1019,2 hPa 0,0 l/m 9,8 km/h N -0,8 C 7,8 C 24,1 km/h
06.04.2017 20:00 9,6 C 48 % 1019,8 hPa 0,0 l/m 9,0 km/h N -0,8 C 7,9 C 23,7 km/h
06.04.2017 21:00 9,4 C 50 % 1020,4 hPa 0,0 l/m 9,7 km/h N -0,5 C 7,1 C 24,9 km/h
06.04.2017 22:00 8,9 C 56 % 1020,7 hPa 0,0 l/m 9,5 km/h N 0,7 C 6,8 C 23,8 km/h
06.04.2017 23:00 8,4 C 59 % 1020,7 hPa 0,0 l/m 10,1 km/h N 0,8 C 5,8 C 25,3 km/h
07.04.2017 00:00 8,3 C 58 % 1020,5 hPa 0,0 l/m 11,1 km/h N 0,6 C 5,0 C 31,4 km/h
07.04.2017 01:00 8,0 C 59 % 1020,0 hPa 0,0 l/m 10,3 km/h N 0,5 C 5,2 C 24,9 km/h
07.04.2017 02:00 7,9 C 59 % 1019,4 hPa 0,0 l/m 9,3 km/h N 0,3 C 5,8 C 22,9 km/h
07.04.2017 03:00 7,8 C 61 % 1019,4 hPa 0,0 l/m 9,6 km/h N 0,8 C 5,4 C 29,8 km/h
07.04.2017 04:00 6,7 C 70 % 1019,4 hPa 0,0 l/m 5,9 km/h N 1,6 C 6,1 C 20,5 km/h
07.04.2017 05:00 6,4 C 73 % 1019,1 hPa 0,5 l/m 6,4 km/h N 1,9 C 6,0 C 21,3 km/h
07.04.2017 06:00 6,0 C 77 % 1018,5 hPa 0,8 l/m 5,9 km/h N 2,2 C 5,7 C 23,7 km/h
07.04.2017 07:00 6,3 C 75 % 1018,1 hPa 1,0 l/m 10,8 km/h N 2,1 C 3,0 C 32,6 km/h
07.04.2017 08:00 6,1 C 78 % 1017,9 hPa 0,8 l/m 15,2 km/h N 2,5 C 0,3 C 35,0 km/h
07.04.2017 09:00 6,9 C 77 % 1017,6 hPa 0,3 l/m 13,6 km/h N 3,1 C 2,1 C 33,8 km/h
07.04.2017 10:00 6,9 C 78 % 1017,5 hPa 1,0 l/m 12,0 km/h N 3,4 C 2,9 C 31,8 km/h
07.04.2017 11:00 7,0 C 79 % 1017,5 hPa 0,5 l/m 13,8 km/h N 3,6 C 2,1 C 38,6 km/h
07.04.2017 12:00 7,1 C 80 % 1017,3 hPa 1,0 l/m 15,0 km/h N 3,8 C 1,6 C 46,3 km/h
07.04.2017 13:00 7,3 C 80 % 1017,4 hPa 1,6 l/m 17,0 km/h N 4,1 C 1,0 C 40,2 km/h
07.04.2017 14:00 7,8 C 80 % 1017,4 hPa 1,6 l/m 13,2 km/h N 4,6 C 3,4 C 34,2 km/h
07.04.2017 15:00 8,3 C 81 % 1017,2 hPa 1,6 l/m 14,4 km/h N 5,1 C 3,3 C 35,4 km/h
07.04.2017 16:00 8,1 C 81 % 1017,1 hPa 1,3 l/m 12,0 km/h N 5,1 C 4,4 C 32,6 km/h
07.04.2017 17:00 8,2 C 81 % 1017,2 hPa 0,5 l/m 9,9 km/h N 5,1 C 5,7 C 29,4 km/h
07.04.2017 18:00 8,1 C 82 % 1017,4 hPa 0,8 l/m 10,2 km/h N 5,1 C 5,4 C 24,5 km/h
07.04.2017 19:00 8,0 C 82 % 1017,8 hPa 1,0 l/m 9,0 km/h N 5,1 C 6,0 C 22,1 km/h
07.04.2017 20:00 8,3 C 82 % 1018,3 hPa 0,0 l/m 8,8 km/h N 5,4 C 6,6 C 23,3 km/h
07.04.2017 21:00 8,8 C 81 % 1018,8 hPa 0,0 l/m 8,9 km/h N 5,8 C 7,0 C 22,1 km/h
07.04.2017 22:00 8,9 C 82 % 1019,1 hPa 0,0 l/m 4,6 km/h N 5,9 C 8,9 C 16,9 km/h
07.04.2017 23:00 9,3 C 81 % 1019,2 hPa 0,0 l/m 6,1 km/h N 6,1 C 8,4 C 20,5 km/h
08.04.2017 00:00 9,8 C 79 % 1019,2 hPa 0,0 l/m 7,2 km/h N 6,3 C 9,0 C 19,7 km/h
08.04.2017 01:00 10,1 C 78 % 1019,1 hPa 0,0 l/m 8,1 km/h N 6,4 C 9,0 C 23,3 km/h
08.04.2017 02:00 10,3 C 78 % 1019,0 hPa 0,3 l/m 11,7 km/h N 6,5 C 7,0 C 28,6 km/h
08.04.2017 03:00 10,0 C 79 % 1019,0 hPa 0,0 l/m 9,8 km/h N 6,6 C 7,8 C 22,5 km/h
08.04.2017 04:00 10,1 C 79 % 1019,2 hPa 0,0 l/m 9,6 km/h N 6,5 C 8,0 C 26,9 km/h
08.04.2017 05:00 9,9 C 79 % 1019,3 hPa 0,0 l/m 13,3 km/h N 6,4 C 5,8 C 28,6 km/h
08.04.2017 06:00 9,9 C 78 % 1019,7 hPa 0,0 l/m 11,7 km/h N 6,2 C 6,5 C 27,3 km/h
08.04.2017 07:00 10,0 C 78 % 1020,5 hPa 0,0 l/m 10,9 km/h N 6,3 C 7,1 C 26,9 km/h
08.04.2017 08:00 10,3 C 77 % 1021,2 hPa 0,0 l/m 10,3 km/h N 6,3 C 7,8 C 27,0 km/h
08.04.2017 09:00 10,5 C 76 % 1021,8 hPa 0,0 l/m 9,9 km/h N 6,4 C 8,2 C 26,1 km/h
08.04.2017 10:00 11,0 C 75 % 1022,5 hPa 0,0 l/m 9,8 km/h N 6,8 C 8,8 C 22,5 km/h
08.04.2017 11:00 12,1 C 72 % 1023,0 hPa 0,0 l/m 9,6 km/h N 7,2 C 10,1 C 24,5 km/h
08.04.2017 12:00 13,0 C 70 % 1023,0 hPa 0,0 l/m 10,1 km/h N 7,7 C 10,9 C 25,7 km/h
08.04.2017 13:00 11,9 C 75 % 1023,0 hPa 0,0 l/m 14,3 km/h N 7,6 C 7,7 C 31,0 km/h
08.04.2017 14:00 12,4 C 75 % 1022,6 hPa 0,0 l/m 12,3 km/h N 8,0 C 9,1 C 27,4 km/h
08.04.2017 15:00 13,5 C 71 % 1022,3 hPa 0,0 l/m 10,2 km/h N 8,3 C 11,4 C 27,0 km/h
08.04.2017 16:00 14,2 C 66 % 1022,2 hPa 0,0 l/m 9,0 km/h N 8,0 C 12,8 C 24,9 km/h
08.04.2017 17:00 14,0 C 65 % 1022,6 hPa 0,0 l/m 6,4 km/h N 7,5 C 13,5 C 17,7 km/h
08.04.2017 18:00 14,0 C 66 % 1022,8 hPa 0,0 l/m 4,8 km/h N 7,6 C 13,8 C 13,7 km/h
08.04.2017 19:00 13,8 C 66 % 1023,1 hPa 0,0 l/m 2,5 km/h N 7,6 C 13,8 C 9,7 km/h
08.04.2017 20:00 13,4 C 68 % 1023,7 hPa 0,0 l/m 0,4 km/h N 7,6 C 13,4 C 5,2 km/h
08.04.2017 21:00 12,7 C 69 % 1024,1 hPa 0,0 l/m 0,3 km/h N 7,2 C 12,7 C 3,6 km/h
08.04.2017 22:00 11,2 C 73 % 1024,3 hPa 0,0 l/m 0,0 km/h N 6,6 C 11,2 C 0,0 km/h
08.04.2017 23:00 9,2 C 77 % 1024,5 hPa 0,0 l/m 0,0 km/h N 5,4 C 9,2 C 0,0 km/h
09.04.2017 00:00 7,8 C 80 % 1024,8 hPa 0,0 l/m 0,0 km/h N 4,6 C 7,8 C 0,8 km/h
09.04.2017 01:00 7,2 C 82 % 1025,3 hPa 0,0 l/m 0,0 km/h N 4,4 C 7,2 C 0,8 km/h
09.04.2017 02:00 6,9 C 83 % 1025,4 hPa 0,0 l/m 0,0 km/h N 4,2 C 6,9 C 0,0 km/h
09.04.2017 03:00 6,7 C 83 % 1025,4 hPa 0,0 l/m 0,0 km/h N 4,0 C 6,7 C 2,0 km/h
09.04.2017 04:00 6,1 C 83 % 1025,4 hPa 0,0 l/m 0,0 km/h N 3,5 C 6,1 C 0,4 km/h
09.04.2017 05:00 5,9 C 83 % 1025,3 hPa 0,0 l/m 0,0 km/h N 3,3 C 5,9 C 1,2 km/h
09.04.2017 06:00 5,2 C 83 % 1025,8 hPa 0,0 l/m 0,0 km/h N 2,6 C 5,2 C 0,0 km/h
09.04.2017 07:00 4,9 C 83 % 1026,2 hPa 0,0 l/m 0,0 km/h N 2,3 C 4,9 C 0,8 km/h
09.04.2017 08:00 7,5 C 83 % 1026,3 hPa 0,0 l/m 0,1 km/h N 4,7 C 7,5 C 1,6 km/h
09.04.2017 09:00 11,2 C 82 % 1026,6 hPa 0,0 l/m 0,0 km/h N 8,2 C 11,2 C 1,6 km/h
09.04.2017 10:00 14,8 C 70 % 1026,4 hPa 0,0 l/m 0,2 km/h N 9,4 C 14,8 C 5,2 km/h
09.04.2017 11:00 17,8 C 57 % 1026,3 hPa 0,0 l/m 0,9 km/h N 9,1 C 17,8 C 7,2 km/h
09.04.2017 12:00 18,4 C 46 % 1025,9 hPa 0,0 l/m 1,1 km/h N 6,7 C 18,4 C 8,0 km/h
09.04.2017 13:00 18,5 C 44 % 1025,7 hPa 0,0 l/m 0,9 km/h N 5,9 C 18,5 C 7,6 km/h
09.04.2017 14:00 18,7 C 43 % 1025,3 hPa 0,0 l/m 0,7 km/h N 5,9 C 18,7 C 6,8 km/h
09.04.2017 15:00 18,0 C 46 % 1024,8 hPa 0,0 l/m 0,4 km/h N 6,2 C 18,0 C 5,2 km/h
09.04.2017 16:00 18,0 C 45 % 1024,3 hPa 0,0 l/m 0,6 km/h N 5,9 C 18,0 C 6,4 km/h
09.04.2017 17:00 17,5 C 46 % 1024,1 hPa 0,0 l/m 0,3 km/h N 5,8 C 17,5 C 4,0 km/h
09.04.2017 18:00 16,8 C 48 % 1024,0 hPa 0,0 l/m 0,2 km/h N 5,6 C 16,8 C 3,2 km/h
09.04.2017 19:00 15,5 C 51 % 1023,8 hPa 0,0 l/m 0,0 km/h N 5,5 C 15,5 C 0,8 km/h
09.04.2017 20:00 13,4 C 59 % 1023,9 hPa 0,0 l/m 0,0 km/h N 5,5 C 13,4 C 0,0 km/h
09.04.2017 21:00 10,7 C 67 % 1024,1 hPa 0,0 l/m 0,0 km/h N 4,8 C 10,7 C 0,0 km/h
09.04.2017 22:00 8,8 C 74 % 1023,9 hPa 0,0 l/m 0,0 km/h N 4,5 C 8,8 C 0,0 km/h
09.04.2017 23:00 8,0 C 79 % 1023,6 hPa 0,0 l/m 0,0 km/h N 4,5 C 8,0 C 0,0 km/h
Min-Datum _ 09.04.17 09.04.17 06.04.17 - 03.04.17 - 06.04.17 07.04.17 03.04.17
_ Min-Zeit 07:15 14:15 02:45 - 00:00 - 17:30 08:00 00:00
Minimum _ 4,3 C 42 % 1015,2 hPa - 0,0 km/h - -1,2 C -0,3 C 0,0 km/h
Max-Datum _ 03.04.17 09.04.17 09.04.17 05.04.17 06.04.17 - 03.04.17 03.04.17 07.04.17
_ Max-Zeit 15:45 02:15 09:15 07:30 12:45 - 14:30 17:30 12:45
Maximum _ 20,4 C 83 % 1026,7 hPa 2,6 l/m 19,5 km/h
N
- 10,6 C 20,4 C 53,1 km/h
N
Durchschnitt _ 11,2 C 69 % 1019,8 hPa #23,7 l/m 7,5 km/h N 5,5 C 9,6 C 19,9 km/h